sensor_id;sensor_type;location;lat;lon;timestamp;pressure;altitude;pressure_sealevel;temperature;humidity
69153;BME280;56261;51.580;4.578;2023-01-28T00:01:12;103126.69;;;3.25;100.00
69153;BME280;56261;51.580;4.578;2023-01-28T00:03:37;103125.75;;;3.26;100.00
69153;BME280;56261;51.580;4.578;2023-01-28T00:06:06;103124.03;;;3.25;100.00
69153;BME280;56261;51.580;4.578;2023-01-28T00:08:32;103121.41;;;3.25;100.00
69153;BME280;56261;51.580;4.578;2023-01-28T00:11:02;103129.66;;;3.17;100.00
69153;BME280;56261;51.580;4.578;2023-01-28T00:13:28;103127.47;;;3.06;100.00
69153;BME280;56261;51.580;4.578;2023-01-28T00:15:56;103124.94;;;3.03;100.00
69153;BME280;56261;51.580;4.578;2023-01-28T00:18:22;103131.69;;;3.10;100.00
69153;BME280;56261;51.580;4.578;2023-01-28T00:21:01;103120.66;;;3.21;100.00
69153;BME280;56261;51.580;4.578;2023-01-28T00:23:28;103125.34;;;3.15;100.00
69153;BME280;56261;51.580;4.578;2023-01-28T00:25:59;103123.78;;;3.10;100.00
69153;BME280;56261;51.580;4.578;2023-01-28T00:28:24;103129.31;;;3.04;100.00
69153;BME280;56261;51.580;4.578;2023-01-28T00:30:50;103130.28;;;3.02;100.00
69153;BME280;56261;51.580;4.578;2023-01-28T00:33:15;103138.59;;;2.93;100.00
69153;BME280;56261;51.580;4.578;2023-01-28T00:35:41;103136.59;;;2.98;100.00
69153;BME280;56261;51.580;4.578;2023-01-28T00:38:06;103133.59;;;3.07;100.00
69153;BME280;56261;51.580;4.578;2023-01-28T00:40:33;103122.03;;;2.89;100.00
69153;BME280;56261;51.580;4.578;2023-01-28T00:42:58;103138.84;;;3.07;100.00
69153;BME280;56261;51.580;4.578;2023-01-28T00:45:23;103139.91;;;3.03;100.00
69153;BME280;56261;51.580;4.578;2023-01-28T00:47:49;103147.63;;;2.85;100.00
69153;BME280;56261;51.580;4.578;2023-01-28T00:50:14;103143.66;;;2.97;100.00
69153;BME280;56261;51.580;4.578;2023-01-28T00:52:40;103131.69;;;3.10;100.00
69153;BME280;56261;51.580;4.578;2023-01-28T00:55:06;103135.88;;;3.15;100.00
69153;BME280;56261;51.580;4.578;2023-01-28T00:57:32;103137.63;;;3.16;100.00
69153;BME280;56261;51.580;4.578;2023-01-28T00:59:58;103137.91;;;3.08;100.00
69153;BME280;56261;51.580;4.578;2023-01-28T01:02:23;103135.81;;;2.96;100.00
69153;BME280;56261;51.580;4.578;2023-01-28T01:04:49;103149.19;;;2.91;100.00
69153;BME280;56261;51.580;4.578;2023-01-28T01:07:26;103144.56;;;2.96;100.00
69153;BME280;56261;51.580;4.578;2023-01-28T01:10:21;103136.25;;;2.85;100.00
69153;BME280;56261;51.580;4.578;2023-01-28T01:12:47;103133.78;;;3.02;100.00
69153;BME280;56261;51.580;4.578;2023-01-28T01:15:13;103134.63;;;3.03;100.00
69153;BME280;56261;51.580;4.578;2023-01-28T01:17:41;103133.31;;;2.93;100.00
69153;BME280;56261;51.580;4.578;2023-01-28T01:20:11;103130.41;;;2.99;100.00
69153;BME280;56261;51.580;4.578;2023-01-28T01:22:37;103128.91;;;2.93;100.00
69153;BME280;56261;51.580;4.578;2023-01-28T01:25:04;103124.81;;;3.06;100.00
69153;BME280;56261;51.580;4.578;2023-01-28T01:27:31;103128.34;;;2.85;100.00
69153;BME280;56261;51.580;4.578;2023-01-28T01:29:56;103124.06;;;2.82;100.00
69153;BME280;56261;51.580;4.578;2023-01-28T01:32:23;103123.72;;;2.90;100.00
69153;BME280;56261;51.580;4.578;2023-01-28T01:34:49;103128.16;;;2.89;100.00
69153;BME280;56261;51.580;4.578;2023-01-28T01:37:14;103124.00;;;2.84;100.00
69153;BME280;56261;51.580;4.578;2023-01-28T01:39:39;103127.72;;;2.78;100.00
69153;BME280;56261;51.580;4.578;2023-01-28T01:42:05;103122.22;;;2.84;100.00
69153;BME280;56261;51.580;4.578;2023-01-28T01:47:46;103118.53;;;2.88;100.00
69153;BME280;56261;51.580;4.578;2023-01-28T01:52:52;103131.53;;;2.93;100.00
69153;BME280;56261;51.580;4.578;2023-01-28T01:55:20;103130.69;;;2.93;100.00
69153;BME280;56261;51.580;4.578;2023-01-28T01:57:51;103132.78;;;3.05;100.00
69153;BME280;56261;51.580;4.578;2023-01-28T02:00:18;103134.81;;;2.98;100.00
69153;BME280;56261;51.580;4.578;2023-01-28T02:02:46;103133.13;;;2.97;100.00
69153;BME280;56261;51.580;4.578;2023-01-28T02:05:15;103142.44;;;2.84;100.00
69153;BME280;56261;51.580;4.578;2023-01-28T02:07:42;103142.06;;;2.71;100.00
69153;BME280;56261;51.580;4.578;2023-01-28T02:10:10;103148.19;;;2.72;100.00
69153;BME280;56261;51.580;4.578;2023-01-28T02:12:39;103153.69;;;2.65;100.00
69153;BME280;56261;51.580;4.578;2023-01-28T02:15:09;103152.66;;;2.69;100.00
69153;BME280;56261;51.580;4.578;2023-01-28T02:17:36;103150.41;;;2.82;100.00
69153;BME280;56261;51.580;4.578;2023-01-28T02:20:06;103153.22;;;2.78;100.00
69153;BME280;56261;51.580;4.578;2023-01-28T02:29:31;103143.78;;;2.72;100.00
69153;BME280;56261;51.580;4.578;2023-01-28T02:31:29;103136.81;;;2.71;100.00
69153;BME280;56261;51.580;4.578;2023-01-28T02:34:33;103129.88;;;2.68;100.00
69153;BME280;56261;51.580;4.578;2023-01-28T02:40:13;103127.59;;;2.81;100.00
69153;BME280;56261;51.580;4.578;2023-01-28T02:42:41;103129.56;;;2.98;100.00
69153;BME280;56261;51.580;4.578;2023-01-28T02:45:22;103127.28;;;2.89;100.00
69153;BME280;56261;51.580;4.578;2023-01-28T02:47:48;103138.75;;;2.88;100.00
69153;BME280;56261;51.580;4.578;2023-01-28T02:50:26;103143.72;;;2.74;100.00
69153;BME280;56261;51.580;4.578;2023-01-28T02:53:05;103144.75;;;2.91;100.00
69153;BME280;56261;51.580;4.578;2023-01-28T02:56:05;103156.16;;;2.70;100.00
69153;BME280;56261;51.580;4.578;2023-01-28T02:58:34;103153.88;;;2.83;100.00
69153;BME280;56261;51.580;4.578;2023-01-28T03:06:25;103162.53;;;2.64;100.00
69153;BME280;56261;51.580;4.578;2023-01-28T03:08:57;103156.53;;;2.61;100.00
69153;BME280;56261;51.580;4.578;2023-01-28T03:11:45;103160.44;;;2.51;100.00
69153;BME280;56261;51.580;4.578;2023-01-28T03:14:31;103164.59;;;2.56;100.00
69153;BME280;56261;51.580;4.578;2023-01-28T03:20:40;103153.53;;;2.48;100.00
69153;BME280;56261;51.580;4.578;2023-01-28T03:23:36;103157.00;;;2.48;100.00
69153;BME280;56261;51.580;4.578;2023-01-28T03:26:24;103148.81;;;2.56;100.00
69153;BME280;56261;51.580;4.578;2023-01-28T03:29:11;103150.34;;;2.62;100.00
69153;BME280;56261;51.580;4.578;2023-01-28T03:31:57;103163.56;;;2.60;100.00
69153;BME280;56261;51.580;4.578;2023-01-28T03:34:42;103166.81;;;2.45;100.00
69153;BME280;56261;51.580;4.578;2023-01-28T03:37:26;103176.78;;;2.59;100.00
69153;BME280;56261;51.580;4.578;2023-01-28T03:39:53;103182.59;;;2.45;100.00
69153;BME280;56261;51.580;4.578;2023-01-28T03:42:21;103166.94;;;2.42;100.00
69153;BME280;56261;51.580;4.578;2023-01-28T03:44:47;103164.47;;;2.37;100.00
69153;BME280;56261;51.580;4.578;2023-01-28T03:47:15;103174.16;;;2.59;100.00
69153;BME280;56261;51.580;4.578;2023-01-28T03:49:46;103166.69;;;2.48;100.00
69153;BME280;56261;51.580;4.578;2023-01-28T03:52:20;103165.31;;;2.38;100.00
69153;BME280;56261;51.580;4.578;2023-01-28T03:54:46;103178.13;;;2.47;100.00
69153;BME280;56261;51.580;4.578;2023-01-28T03:57:16;103177.69;;;2.36;100.00
69153;BME280;56261;51.580;4.578;2023-01-28T03:59:43;103181.47;;;2.28;100.00
69153;BME280;56261;51.580;4.578;2023-01-28T04:02:09;103180.38;;;2.34;100.00
69153;BME280;56261;51.580;4.578;2023-01-28T04:04:39;103176.47;;;2.44;100.00
69153;BME280;56261;51.580;4.578;2023-01-28T04:07:06;103179.88;;;2.48;100.00
69153;BME280;56261;51.580;4.578;2023-01-28T04:09:37;103183.28;;;2.50;100.00
69153;BME280;56261;51.580;4.578;2023-01-28T04:12:04;103168.00;;;2.36;100.00
69153;BME280;56261;51.580;4.578;2023-01-28T04:14:29;103181.81;;;2.43;100.00
69153;BME280;56261;51.580;4.578;2023-01-28T04:16:55;103185.69;;;2.56;100.00
69153;BME280;56261;51.580;4.578;2023-01-28T04:19:21;103183.28;;;2.50;100.00
69153;BME280;56261;51.580;4.578;2023-01-28T04:21:47;103182.72;;;2.42;100.00
69153;BME280;56261;51.580;4.578;2023-01-28T04:24:14;103190.72;;;2.39;100.00
69153;BME280;56261;51.580;4.578;2023-01-28T04:26:39;103178.53;;;2.36;100.00
69153;BME280;56261;51.580;4.578;2023-01-28T04:29:05;103179.06;;;2.46;100.00
69153;BME280;56261;51.580;4.578;2023-01-28T04:31:31;103180.09;;;2.42;100.00
69153;BME280;56261;51.580;4.578;2023-01-28T04:33:56;103171.66;;;2.56;100.00
69153;BME280;56261;51.580;4.578;2023-01-28T04:36:23;103172.50;;;2.56;100.00
69153;BME280;56261;51.580;4.578;2023-01-28T04:38:48;103183.19;;;2.53;100.00
69153;BME280;56261;51.580;4.578;2023-01-28T04:41:14;103183.28;;;2.50;100.00
69153;BME280;56261;51.580;4.578;2023-01-28T04:43:39;103186.84;;;2.49;100.00
69153;BME280;56261;51.580;4.578;2023-01-28T04:46:05;103185.41;;;2.40;100.00
69153;BME280;56261;51.580;4.578;2023-01-28T04:48:30;103190.09;;;2.56;100.00
69153;BME280;56261;51.580;4.578;2023-01-28T04:50:59;103197.16;;;2.55;100.00
69153;BME280;56261;51.580;4.578;2023-01-28T04:53:25;103189.16;;;2.57;100.00
69153;BME280;56261;51.580;4.578;2023-01-28T04:55:50;103189.16;;;2.57;100.00
69153;BME280;56261;51.580;4.578;2023-01-28T04:58:16;103199.03;;;2.52;100.00
69153;BME280;56261;51.580;4.578;2023-01-28T05:00:41;103194.97;;;2.43;100.00
69153;BME280;56261;51.580;4.578;2023-01-28T05:03:07;103196.81;;;2.41;100.00
69153;BME280;56261;51.580;4.578;2023-01-28T05:05:32;103189.69;;;2.43;100.00
69153;BME280;56261;51.580;4.578;2023-01-28T05:07:58;103193.31;;;2.40;100.00
69153;BME280;56261;51.580;4.578;2023-01-28T05:10:25;103188.66;;;2.47;100.00
69153;BME280;56261;51.580;4.578;2023-01-28T05:12:51;103172.06;;;2.45;100.00
69153;BME280;56261;51.580;4.578;2023-01-28T05:15:17;103172.59;;;2.55;100.00
69153;BME280;56261;51.580;4.578;2023-01-28T05:17:43;103174.91;;;2.62;100.00
69153;BME280;56261;51.580;4.578;2023-01-28T05:20:10;103180.94;;;2.42;100.00
69153;BME280;56261;51.580;4.578;2023-01-28T05:22:36;103182.56;;;2.23;100.00
69153;BME280;56261;51.580;4.578;2023-01-28T05:25:02;103174.94;;;2.39;100.00
69153;BME280;56261;51.580;4.578;2023-01-28T05:27:29;103181.69;;;2.46;100.00
69153;BME280;56261;51.580;4.578;2023-01-28T05:29:54;103175.91;;;2.36;100.00
69153;BME280;56261;51.580;4.578;2023-01-28T05:32:19;103178.94;;;2.49;100.00
69153;BME280;56261;51.580;4.578;2023-01-28T05:34:45;103183.81;;;2.36;100.00
69153;BME280;56261;51.580;4.578;2023-01-28T05:37:10;103182.72;;;2.42;100.00
69153;BME280;56261;51.580;4.578;2023-01-28T05:39:35;103183.75;;;2.38;100.00
69153;BME280;56261;51.580;4.578;2023-01-28T05:42:01;103190.84;;;2.36;100.00
69153;BME280;56261;51.580;4.578;2023-01-28T05:44:26;103189.47;;;2.25;100.00
69153;BME280;56261;51.580;4.578;2023-01-28T05:46:52;103200.72;;;2.31;100.00
69153;BME280;56261;51.580;4.578;2023-01-28T05:49:17;103195.53;;;2.27;100.00
69153;BME280;56261;51.580;4.578;2023-01-28T05:51:42;103198.72;;;2.37;100.00
69153;BME280;56261;51.580;4.578;2023-01-28T05:54:08;103198.31;;;2.24;100.00
69153;BME280;56261;51.580;4.578;2023-01-28T05:56:34;103201.22;;;2.17;100.00
69153;BME280;56261;51.580;4.578;2023-01-28T05:59:01;103197.84;;;2.13;100.00
69153;BME280;56261;51.580;4.578;2023-01-28T06:01:27;103191.44;;;2.20;100.00
69153;BME280;56261;51.580;4.578;2023-01-28T06:03:53;103171.56;;;2.12;100.00
69153;BME280;56261;51.580;4.578;2023-01-28T06:06:18;103188.34;;;2.09;100.00
69153;BME280;56261;51.580;4.578;2023-01-28T06:08:44;103188.91;;;2.17;100.00
69153;BME280;56261;51.580;4.578;2023-01-28T06:11:09;103190.69;;;2.17;100.00
69153;BME280;56261;51.580;4.578;2023-01-28T06:13:34;103189.91;;;2.15;100.00
69153;BME280;56261;51.580;4.578;2023-01-28T06:16:00;103188.41;;;2.31;100.00
69153;BME280;56261;51.580;4.578;2023-01-28T06:18:25;103182.72;;;2.18;100.00
69153;BME280;56261;51.580;4.578;2023-01-28T06:20:51;103184.47;;;2.19;100.00
69153;BME280;56261;51.580;4.578;2023-01-28T06:23:16;103186.91;;;2.24;100.00
69153;BME280;56261;51.580;4.578;2023-01-28T06:25:42;103197.16;;;2.08;100.00
69153;BME280;56261;51.580;4.578;2023-01-28T06:28:07;103204.59;;;2.20;100.00
69153;BME280;56261;51.580;4.578;2023-01-28T06:30:33;103191.00;;;2.07;100.00
69153;BME280;56261;51.580;4.578;2023-01-28T06:32:59;103196.22;;;2.09;100.00
69153;BME280;56261;51.580;4.578;2023-01-28T06:35:24;103197.22;;;2.06;100.00
69153;BME280;56261;51.580;4.578;2023-01-28T06:37:51;103202.00;;;2.19;100.00
69153;BME280;56261;51.580;4.578;2023-01-28T06:40:17;103187.19;;;2.16;100.00
69153;BME280;56261;51.580;4.578;2023-01-28T06:42:42;103190.19;;;2.31;100.00
69153;BME280;56261;51.580;4.578;2023-01-28T06:45:08;103196.69;;;2.20;100.00
69153;BME280;56261;51.580;4.578;2023-01-28T06:47:33;103199.28;;;2.22;100.00
69153;BME280;56261;51.580;4.578;2023-01-28T06:49:59;103197.78;;;2.15;100.00
69153;BME280;56261;51.580;4.578;2023-01-28T06:52:24;103198.59;;;2.17;100.00
69153;BME280;56261;51.580;4.578;2023-01-28T06:54:50;103200.78;;;2.05;100.00
69153;BME280;56261;51.580;4.578;2023-01-28T06:57:15;103206.97;;;2.03;100.00
69153;BME280;56261;51.580;4.578;2023-01-28T06:59:40;103206.16;;;2.01;100.00
69153;BME280;56261;51.580;4.578;2023-01-28T07:02:06;103208.38;;;2.13;100.00
69153;BME280;56261;51.580;4.578;2023-01-28T07:04:31;103207.63;;;2.10;100.00
69153;BME280;56261;51.580;4.578;2023-01-28T07:06:56;103211.13;;;2.10;100.00
69153;BME280;56261;51.580;4.578;2023-01-28T07:09:22;103208.16;;;2.19;100.00
69153;BME280;56261;51.580;4.578;2023-01-28T07:11:47;103208.53;;;2.08;100.00
69153;BME280;56261;51.580;4.578;2023-01-28T07:14:13;103217.94;;;2.16;100.00
69153;BME280;56261;51.580;4.578;2023-01-28T07:16:38;103220.13;;;2.28;100.00
69153;BME280;56261;51.580;4.578;2023-01-28T07:19:03;103215.97;;;2.21;100.00
69153;BME280;56261;51.580;4.578;2023-01-28T07:21:29;103217.94;;;2.39;100.00
69153;BME280;56261;51.580;4.578;2023-01-28T07:23:54;103227.84;;;2.33;100.00
69153;BME280;56261;51.580;4.578;2023-01-28T07:26:20;103226.00;;;2.11;100.00
69153;BME280;56261;51.580;4.578;2023-01-28T07:28:45;103233.50;;;2.22;100.00
69153;BME280;56261;51.580;4.578;2023-01-28T07:31:11;103230.97;;;2.19;100.00
69153;BME280;56261;51.580;4.578;2023-01-28T07:33:36;103223.38;;;2.35;100.00
69153;BME280;56261;51.580;4.578;2023-01-28T07:36:01;103203.63;;;2.23;100.00
69153;BME280;56261;51.580;4.578;2023-01-28T07:38:27;103219.88;;;2.34;100.00
69153;BME280;56261;51.580;4.578;2023-01-28T07:40:52;103229.84;;;2.26;100.00
69153;BME280;56261;51.580;4.578;2023-01-28T07:43:18;103234.09;;;2.30;100.00
69153;BME280;56261;51.580;4.578;2023-01-28T07:45:43;103236.88;;;2.25;100.00
69153;BME280;56261;51.580;4.578;2023-01-28T07:48:11;103237.03;;;2.21;100.00
69153;BME280;56261;51.580;4.578;2023-01-28T07:50:37;103242.53;;;2.38;100.00
69153;BME280;56261;51.580;4.578;2023-01-28T07:53:06;103248.91;;;2.33;100.00
69153;BME280;56261;51.580;4.578;2023-01-28T07:55:32;103239.50;;;2.25;100.00
69153;BME280;56261;51.580;4.578;2023-01-28T07:58:01;103241.09;;;2.29;100.00
69153;BME280;56261;51.580;4.578;2023-01-28T08:00:29;103248.91;;;2.33;100.00
69153;BME280;56261;51.580;4.578;2023-01-28T08:02:56;103257.16;;;2.23;100.00
69153;BME280;56261;51.580;4.578;2023-01-28T08:05:23;103259.72;;;2.25;100.00
69153;BME280;56261;51.580;4.578;2023-01-28T08:07:51;103252.66;;;2.25;100.00
69153;BME280;56261;51.580;4.578;2023-01-28T08:10:18;103258.81;;;2.26;100.00
69153;BME280;56261;51.580;4.578;2023-01-28T08:12:54;103259.38;;;2.34;100.00
69153;BME280;56261;51.580;4.578;2023-01-28T08:15:21;103268.06;;;2.36;100.00
69153;BME280;56261;51.580;4.578;2023-01-28T08:17:47;103265.25;;;2.17;100.00
69153;BME280;56261;51.580;4.578;2023-01-28T08:20:12;103266.13;;;2.18;100.00
69153;BME280;56261;51.580;4.578;2023-01-28T08:22:38;103269.78;;;2.14;100.00
69153;BME280;56261;51.580;4.578;2023-01-28T08:25:04;103274.19;;;2.13;100.00
69153;BME280;56261;51.580;4.578;2023-01-28T08:27:29;103280.38;;;2.12;100.00
69153;BME280;56261;51.580;4.578;2023-01-28T08:29:55;103279.16;;;2.21;100.00
69153;BME280;56261;51.580;4.578;2023-01-28T08:32:20;103274.13;;;2.15;100.00
69153;BME280;56261;51.580;4.578;2023-01-28T08:34:46;103283.16;;;2.33;100.00
69153;BME280;56261;51.580;4.578;2023-01-28T08:37:11;103261.28;;;2.31;100.00
69153;BME280;56261;51.580;4.578;2023-01-28T08:39:36;103277.00;;;2.32;100.00
69153;BME280;56261;51.580;4.578;2023-01-28T08:42:02;103268.19;;;2.33;100.00
69153;BME280;56261;51.580;4.578;2023-01-28T08:44:27;103279.59;;;2.34;100.00
69153;BME280;56261;51.580;4.578;2023-01-28T08:46:53;103289.53;;;2.25;100.00
69153;BME280;56261;51.580;4.578;2023-01-28T08:49:18;103287.59;;;2.31;100.00
69153;BME280;56261;51.580;4.578;2023-01-28T08:51:43;103289.59;;;2.47;100.00
69153;BME280;56261;51.580;4.578;2023-01-28T08:54:09;103282.47;;;2.51;100.00
69153;BME280;56261;51.580;4.578;2023-01-28T08:56:34;103286.38;;;2.64;100.00
69153;BME280;56261;51.580;4.578;2023-01-28T08:59:00;103284.06;;;2.55;100.00
69153;BME280;56261;51.580;4.578;2023-01-28T09:01:25;103285.06;;;2.53;100.00
69153;BME280;56261;51.580;4.578;2023-01-28T09:03:53;103288.31;;;2.59;100.00
69153;BME280;56261;51.580;4.578;2023-01-28T09:06:18;103292.53;;;2.63;100.00
69153;BME280;56261;51.580;4.578;2023-01-28T09:08:44;103290.41;;;2.49;100.00
69153;BME280;56261;51.580;4.578;2023-01-28T09:11:09;103294.06;;;2.45;100.00
69153;BME280;56261;51.580;4.578;2023-01-28T09:13:34;103303.38;;;2.56;100.00
69153;BME280;56261;51.580;4.578;2023-01-28T09:16:03;103307.94;;;2.51;100.00
69153;BME280;56261;51.580;4.578;2023-01-28T09:18:29;103308.25;;;2.66;100.00
69153;BME280;56261;51.580;4.578;2023-01-28T09:20:54;103310.75;;;2.69;100.00
69153;BME280;56261;51.580;4.578;2023-01-28T09:23:20;103319.47;;;2.95;100.00
69153;BME280;56261;51.580;4.578;2023-01-28T09:25:45;103323.41;;;2.83;100.00
69153;BME280;56261;51.580;4.578;2023-01-28T09:28:11;103319.25;;;2.78;100.00
69153;BME280;56261;51.580;4.578;2023-01-28T09:30:37;103315.56;;;2.82;100.00
69153;BME280;56261;51.580;4.578;2023-01-28T09:33:04;103325.31;;;2.80;100.00
69153;BME280;56261;51.580;4.578;2023-01-28T09:35:32;103328.34;;;2.93;100.00
69153;BME280;56261;51.580;4.578;2023-01-28T09:37:58;103324.03;;;2.90;100.00
69153;BME280;56261;51.580;4.578;2023-01-28T09:40:41;103322.50;;;2.84;100.00
69153;BME280;56261;51.580;4.578;2023-01-28T09:45:41;103335.09;;;3.00;100.00
69153;BME280;56261;51.580;4.578;2023-01-28T09:48:20;103326.84;;;2.85;100.00
69153;BME280;56261;51.580;4.578;2023-01-28T09:50:49;103340.44;;;2.98;100.00
69153;BME280;56261;51.580;4.578;2023-01-28T09:53:29;103337.78;;;2.98;100.00
69153;BME280;56261;51.580;4.578;2023-01-28T09:56:33;103320.94;;;3.02;100.00
69153;BME280;56261;51.580;4.578;2023-01-28T09:59:21;103333.41;;;3.21;100.00
69153;BME280;56261;51.580;4.578;2023-01-28T10:02:10;103328.44;;;3.13;100.00
69153;BME280;56261;51.580;4.578;2023-01-28T10:10:39;103341.69;;;3.11;100.00
69153;BME280;56261;51.580;4.578;2023-01-28T10:13:19;103333.56;;;3.40;100.00
69153;BME280;56261;51.580;4.578;2023-01-28T10:15:53;103327.81;;;3.72;100.00
69153;BME280;56261;51.580;4.578;2023-01-28T10:18:28;103336.91;;;3.65;100.00
69153;BME280;56261;51.580;4.578;2023-01-28T10:21:00;103333.13;;;3.28;100.00
69153;BME280;56261;51.580;4.578;2023-01-28T10:23:47;103338.44;;;3.71;100.00
69153;BME280;56261;51.580;4.578;2023-01-28T10:26:22;103341.72;;;3.98;100.00
69153;BME280;56261;51.580;4.578;2023-01-28T10:28:53;103340.47;;;3.86;100.00
69153;BME280;56261;51.580;4.578;2023-01-28T10:31:21;103338.91;;;3.81;100.00
69153;BME280;56261;51.580;4.578;2023-01-28T10:33:47;103342.38;;;3.39;100.00
69153;BME280;56261;51.580;4.578;2023-01-28T10:36:14;103333.47;;;3.41;100.00
69153;BME280;56261;51.580;4.578;2023-01-28T10:38:42;103329.19;;;3.61;100.00
69153;BME280;56261;51.580;4.578;2023-01-28T10:41:10;103326.81;;;3.75;100.00
69153;BME280;56261;51.580;4.578;2023-01-28T10:43:39;103331.81;;;3.61;100.00
69153;BME280;56261;51.580;4.578;2023-01-28T10:46:23;103326.25;;;3.46;100.00
69153;BME280;56261;51.580;4.578;2023-01-28T10:51:42;103323.28;;;3.32;100.00
69153;BME280;56261;51.580;4.578;2023-01-28T10:54:21;103321.47;;;3.34;100.00
69153;BME280;56261;51.580;4.578;2023-01-28T10:56:49;103309.53;;;3.46;100.00
69153;BME280;56261;51.580;4.578;2023-01-28T11:01:53;103312.13;;;3.47;100.00
69153;BME280;56261;51.580;4.578;2023-01-28T11:04:30;103317.03;;;3.57;100.00
69153;BME280;56261;51.580;4.578;2023-01-28T11:06:58;103313.22;;;3.64;100.00
69153;BME280;56261;51.580;4.578;2023-01-28T11:09:27;103307.09;;;3.41;100.00
69153;BME280;56261;51.580;4.578;2023-01-28T11:11:53;103295.13;;;3.54;100.00
69153;BME280;56261;51.580;4.578;2023-01-28T11:14:20;103291.78;;;3.51;100.00
69153;BME280;56261;51.580;4.578;2023-01-28T11:16:46;103295.81;;;3.60;100.00
69153;BME280;56261;51.580;4.578;2023-01-28T11:19:13;103287.63;;;3.44;100.00
69153;BME280;56261;51.580;4.578;2023-01-28T11:21:38;103296.69;;;3.38;100.00
69153;BME280;56261;51.580;4.578;2023-01-28T11:24:16;103286.22;;;3.57;100.00
69153;BME280;56261;51.580;4.578;2023-01-28T11:26:47;103276.66;;;3.54;100.00
69153;BME280;56261;51.580;4.578;2023-01-28T11:29:33;103278.19;;;3.60;100.00
69153;BME280;56261;51.580;4.578;2023-01-28T11:32:02;103273.31;;;3.51;100.00
69153;BME280;56261;51.580;4.578;2023-01-28T11:34:33;103251.81;;;3.60;100.00
69153;BME280;56261;51.580;4.578;2023-01-28T11:37:09;103238.66;;;3.59;100.00
69153;BME280;56261;51.580;4.578;2023-01-28T11:39:36;103235.03;;;3.61;100.00
69153;BME280;56261;51.580;4.578;2023-01-28T11:42:11;103230.84;;;3.78;100.00
69153;BME280;56261;51.580;4.578;2023-01-28T11:44:38;103237.88;;;3.57;100.00
69153;BME280;56261;51.580;4.578;2023-01-28T11:47:25;103227.59;;;3.71;100.00
69153;BME280;56261;51.580;4.578;2023-01-28T11:53:41;103190.91;;;3.85;100.00
69153;BME280;56261;51.580;4.578;2023-01-28T12:04:23;103190.66;;;3.71;100.00
69153;BME280;56261;51.580;4.578;2023-01-28T12:15:30;103193.00;;;3.98;100.00
69153;BME280;56261;51.580;4.578;2023-01-28T12:21:05;103216.78;;;4.16;100.00
69153;BME280;56261;51.580;4.578;2023-01-28T12:26:09;103221.72;;;3.85;100.00
69153;BME280;56261;51.580;4.578;2023-01-28T12:40:02;103234.13;;;4.03;100.00
69153;BME280;56261;51.580;4.578;2023-01-28T12:42:53;103235.50;;;4.12;100.00
69153;BME280;56261;51.580;4.578;2023-01-28T12:45:16;103237.06;;;4.16;100.00
69153;BME280;56261;51.580;4.578;2023-01-28T12:47:49;103238.97;;;4.12;100.00
69153;BME280;56261;51.580;4.578;2023-01-28T12:50:24;103240.91;;;4.09;100.00
69153;BME280;56261;51.580;4.578;2023-01-28T12:52:59;103250.28;;;4.35;100.00
69153;BME280;56261;51.580;4.578;2023-01-28T12:57:58;103245.59;;;4.23;100.00
69153;BME280;56261;51.580;4.578;2023-01-28T13:00:30;103252.91;;;4.16;100.00
69153;BME280;56261;51.580;4.578;2023-01-28T13:03:10;103259.59;;;4.04;100.00
69153;BME280;56261;51.580;4.578;2023-01-28T13:05:47;103233.50;;;4.17;100.00
69153;BME280;56261;51.580;4.578;2023-01-28T13:08:26;103231.88;;;3.94;100.00
69153;BME280;56261;51.580;4.578;2023-01-28T13:10:52;103225.50;;;4.00;100.00
69153;BME280;56261;51.580;4.578;2023-01-28T13:13:25;103210.28;;;4.05;100.00
69153;BME280;56261;51.580;4.578;2023-01-28T13:15:52;103213.38;;;4.14;100.00
69153;BME280;56261;51.580;4.578;2023-01-28T13:18:33;103206.81;;;4.04;100.00
69153;BME280;56261;51.580;4.578;2023-01-28T13:23:49;103205.03;;;3.84;100.00
69153;BME280;56261;51.580;4.578;2023-01-28T13:28:50;103194.72;;;3.99;100.00
69153;BME280;56261;51.580;4.578;2023-01-28T13:31:18;103175.72;;;3.90;100.00
69153;BME280;56261;51.580;4.578;2023-01-28T13:33:48;103163.97;;;3.98;100.00
69153;BME280;56261;51.580;4.578;2023-01-28T13:36:25;103155.84;;;4.02;100.00
69153;BME280;56261;51.580;4.578;2023-01-28T13:39:20;103159.06;;;4.09;100.00
69153;BME280;56261;51.580;4.578;2023-01-28T13:46:49;103155.63;;;4.07;100.00
69153;BME280;56261;51.580;4.578;2023-01-28T13:49:20;103158.59;;;3.99;100.00
69153;BME280;56261;51.580;4.578;2023-01-28T13:54:37;103148.56;;;4.07;100.00
69153;BME280;56261;51.580;4.578;2023-01-28T14:14:15;103199.84;;;4.02;100.00
69153;BME280;56261;51.580;4.578;2023-01-28T14:19:26;103191.16;;;4.00;100.00
69153;BME280;56261;51.580;4.578;2023-01-28T14:21:52;103189.69;;;3.92;100.00
69153;BME280;56261;51.580;4.578;2023-01-28T14:24:18;103189.00;;;4.08;100.00
69153;BME280;56261;51.580;4.578;2023-01-28T14:31:45;103186.16;;;3.93;100.00
69153;BME280;56261;51.580;4.578;2023-01-28T14:34:30;103186.69;;;3.81;100.00
69153;BME280;56261;51.580;4.578;2023-01-28T14:37:00;103189.19;;;3.64;100.00
69153;BME280;56261;51.580;4.578;2023-01-28T14:39:31;103201.13;;;3.52;100.00
69153;BME280;56261;51.580;4.578;2023-01-28T14:42:02;103203.38;;;3.61;100.00
69153;BME280;56261;51.580;4.578;2023-01-28T14:44:37;103190.28;;;3.60;100.00
69153;BME280;56261;51.580;4.578;2023-01-28T14:53:54;103194.06;;;3.52;100.00
69153;BME280;56261;51.580;4.578;2023-01-28T14:59:14;103189.13;;;3.65;100.00
69153;BME280;56261;51.580;4.578;2023-01-28T15:01:45;103186.88;;;3.77;100.00
69153;BME280;56261;51.580;4.578;2023-01-28T15:04:25;103180.97;;;3.51;100.00
69153;BME280;56261;51.580;4.578;2023-01-28T15:06:51;103185.84;;;3.60;100.00